DLH25Q EDDF-EDDS
Flight info
| Callsign | DLH25Q |
|---|---|
| Flight time | 0h 21m |
| Altitude | 19000 |
| Route | ANEKI2L/18 ANEKI Y163 NEKLO Y171 INKAM N850 KRH T128 BADSO BADSO2A |
| Aircraft | A319/M-SDE3FGHIRWY/LB1 |
Departure
| Time | 2026-04-18 10:11 |
|---|---|
| Airport | Frankfurt Main Airport (EDDF) |
Arrival
| Time | 2026-04-18 10:32 |
|---|---|
| Airport | Stuttgart Airport (EDDS) |
| Time | Latitude | Longitude | Altitude | Speed | Heading |
|---|---|---|---|---|---|
| 2026-04-18 09:46 | 50.04687 | 8.56700 | 363 ft | 0 kts | 115° |
| 2026-04-18 10:01 | 50.04688 | 8.56697 | 356 ft | 3 kts | 115° |
| 2026-04-18 10:01 | 50.04699 | 8.56659 | 361 ft | 4 kts | 115° |
| 2026-04-18 10:01 | 50.04711 | 8.56630 | 360 ft | 4 kts | 159° |
| 2026-04-18 10:01 | 50.04732 | 8.56635 | 360 ft | 4 kts | 208° |
| 2026-04-18 10:02 | 50.04751 | 8.56649 | 363 ft | 4 kts | 206° |
| 2026-04-18 10:02 | 50.04774 | 8.56668 | 363 ft | 3 kts | 205° |
| 2026-04-18 10:02 | 50.04779 | 8.56671 | 363 ft | 0 kts | 205° |
| 2026-04-18 10:04 | 50.04778 | 8.56671 | 363 ft | 1 kts | 205° |
| 2026-04-18 10:04 | 50.04767 | 8.56662 | 356 ft | 3 kts | 207° |
| 2026-04-18 10:04 | 50.04744 | 8.56631 | 364 ft | 6 kts | 229° |
| 2026-04-18 10:05 | 50.04709 | 8.56561 | 359 ft | 10 kts | 231° |
| 2026-04-18 10:05 | 50.04670 | 8.56451 | 358 ft | 13 kts | 249° |
| 2026-04-18 10:05 | 50.04634 | 8.56297 | 356 ft | 17 kts | 249° |
| 2026-04-18 10:05 | 50.04589 | 8.56112 | 362 ft | 20 kts | 249° |
| 2026-04-18 10:06 | 50.04523 | 8.55955 | 358 ft | 17 kts | 202° |
| 2026-04-18 10:06 | 50.04411 | 8.55907 | 357 ft | 17 kts | 186° |
| 2026-04-18 10:06 | 50.04304 | 8.55953 | 356 ft | 17 kts | 158° |
| 2026-04-18 10:06 | 50.04220 | 8.55856 | 358 ft | 18 kts | 249° |
| 2026-04-18 10:07 | 50.04172 | 8.55660 | 352 ft | 20 kts | 249° |
| 2026-04-18 10:07 | 50.04121 | 8.55445 | 357 ft | 22 kts | 250° |
| 2026-04-18 10:07 | 50.04068 | 8.55221 | 354 ft | 22 kts | 249° |
| 2026-04-18 10:07 | 50.04012 | 8.54991 | 354 ft | 23 kts | 249° |
| 2026-04-18 10:08 | 50.03954 | 8.54749 | 352 ft | 25 kts | 249° |
| 2026-04-18 10:08 | 50.03894 | 8.54501 | 352 ft | 23 kts | 249° |
| 2026-04-18 10:08 | 50.03840 | 8.54323 | 346 ft | 16 kts | 231° |
| 2026-04-18 10:08 | 50.03783 | 8.54168 | 345 ft | 17 kts | 248° |
| 2026-04-18 10:09 | 50.03740 | 8.53982 | 346 ft | 19 kts | 250° |
| 2026-04-18 10:09 | 50.03693 | 8.53775 | 348 ft | 21 kts | 250° |
| 2026-04-18 10:09 | 50.03638 | 8.53556 | 339 ft | 22 kts | 247° |
| 2026-04-18 10:09 | 50.03582 | 8.53324 | 338 ft | 22 kts | 250° |
| 2026-04-18 10:10 | 50.03527 | 8.53103 | 337 ft | 21 kts | 248° |
| 2026-04-18 10:10 | 50.03474 | 8.52888 | 334 ft | 22 kts | 249° |
| 2026-04-18 10:10 | 50.03421 | 8.52684 | 336 ft | 16 kts | 248° |
| 2026-04-18 10:10 | 50.03331 | 8.52595 | 336 ft | 17 kts | 182° |
| 2026-04-18 10:11 | 50.03056 | 8.52598 | 336 ft | 78 kts | 179° |
| 2026-04-18 10:11 | 50.02266 | 8.52607 | 335 ft | 146 kts | 179° |
| 2026-04-18 10:11 | 50.01126 | 8.52615 | 691 ft | 166 kts | 179° |
| 2026-04-18 10:11 | 49.99973 | 8.52641 | 1462 ft | 165 kts | 179° |
| 2026-04-18 10:12 | 49.98799 | 8.52739 | 2089 ft | 176 kts | 177° |
| 2026-04-18 10:12 | 49.97536 | 8.52889 | 2648 ft | 189 kts | 177° |
| 2026-04-18 10:12 | 49.96144 | 8.52996 | 3015 ft | 214 kts | 179° |
| 2026-04-18 10:12 | 49.94580 | 8.53084 | 3595 ft | 231 kts | 179° |
| 2026-04-18 10:13 | 49.92971 | 8.53174 | 4564 ft | 233 kts | 180° |
| 2026-04-18 10:13 | 49.91346 | 8.53272 | 5572 ft | 234 kts | 180° |
| 2026-04-18 10:13 | 49.89720 | 8.53374 | 6600 ft | 234 kts | 179° |
| 2026-04-18 10:13 | 49.88088 | 8.53480 | 7535 ft | 236 kts | 179° |
| 2026-04-18 10:14 | 49.86425 | 8.53592 | 8422 ft | 242 kts | 179° |
| 2026-04-18 10:14 | 49.84728 | 8.53707 | 9319 ft | 246 kts | 179° |
| 2026-04-18 10:14 | 49.83026 | 8.53822 | 10191 ft | 251 kts | 179° |
| 2026-04-18 10:14 | 49.81259 | 8.53941 | 11007 ft | 256 kts | 180° |
| 2026-04-18 10:15 | 49.79464 | 8.54059 | 11820 ft | 261 kts | 180° |
| 2026-04-18 10:15 | 49.77632 | 8.54082 | 12610 ft | 267 kts | 187° |
| 2026-04-18 10:15 | 49.75700 | 8.53828 | 12977 ft | 291 kts | 188° |
| 2026-04-18 10:15 | 49.73602 | 8.53535 | 13289 ft | 315 kts | 188° |
| 2026-04-18 10:16 | 49.71340 | 8.53222 | 13554 ft | 338 kts | 188° |
| 2026-04-18 10:16 | 49.68939 | 8.52898 | 14049 ft | 352 kts | 188° |
| 2026-04-18 10:16 | 49.66475 | 8.52575 | 14712 ft | 358 kts | 188° |
| 2026-04-18 10:16 | 49.63982 | 8.52254 | 15410 ft | 362 kts | 188° |
| 2026-04-18 10:17 | 49.61455 | 8.51929 | 16121 ft | 366 kts | 188° |
| 2026-04-18 10:17 | 49.58907 | 8.51597 | 16843 ft | 370 kts | 188° |
| 2026-04-18 10:17 | 49.56328 | 8.51259 | 17547 ft | 374 kts | 188° |
| 2026-04-18 10:17 | 49.53724 | 8.50917 | 18250 ft | 378 kts | 188° |
| 2026-04-18 10:18 | 49.51093 | 8.50569 | 18866 ft | 382 kts | 188° |
| 2026-04-18 10:18 | 49.48440 | 8.50220 | 19110 ft | 383 kts | 188° |
| 2026-04-18 10:18 | 49.45780 | 8.49872 | 19183 ft | 385 kts | 188° |
| 2026-04-18 10:18 | 49.43110 | 8.49523 | 19183 ft | 386 kts | 188° |
| 2026-04-18 10:19 | 49.40428 | 8.49175 | 19193 ft | 387 kts | 188° |
| 2026-04-18 10:19 | 49.37746 | 8.48826 | 19195 ft | 387 kts | 188° |
| 2026-04-18 10:19 | 49.35061 | 8.48476 | 19192 ft | 387 kts | 188° |
| 2026-04-18 10:19 | 49.32405 | 8.48132 | 18997 ft | 378 kts | 188° |
| 2026-04-18 10:20 | 49.29793 | 8.48062 | 18755 ft | 377 kts | 175° |
| 2026-04-18 10:20 | 49.27269 | 8.49140 | 18526 ft | 380 kts | 159° |
| 2026-04-18 10:20 | 49.24964 | 8.51095 | 18060 ft | 379 kts | 148° |
| 2026-04-18 10:20 | 49.22797 | 8.53358 | 17560 ft | 377 kts | 148° |
| 2026-04-18 10:21 | 49.20630 | 8.55502 | 17042 ft | 374 kts | 149° |
| 2026-04-18 10:21 | 49.18401 | 8.57620 | 16570 ft | 371 kts | 152° |
| 2026-04-18 10:21 | 49.16103 | 8.59208 | 16120 ft | 365 kts | 165° |
| 2026-04-18 10:21 | 49.13647 | 8.60059 | 15665 ft | 359 kts | 176° |
| 2026-04-18 10:22 | 49.11175 | 8.60175 | 15215 ft | 354 kts | 187° |
| 2026-04-18 10:22 | 49.08735 | 8.59817 | 14781 ft | 351 kts | 189° |
| 2026-04-18 10:22 | 49.06311 | 8.59454 | 14337 ft | 350 kts | 189° |
| 2026-04-18 10:22 | 49.03890 | 8.59100 | 13878 ft | 349 kts | 188° |
| 2026-04-18 10:23 | 49.01486 | 8.58750 | 13401 ft | 346 kts | 188° |
| 2026-04-18 10:23 | 48.99090 | 8.58491 | 12936 ft | 345 kts | 182° |
| 2026-04-18 10:23 | 48.96699 | 8.58731 | 12473 ft | 343 kts | 178° |
| 2026-04-18 10:23 | 48.94324 | 8.59020 | 11995 ft | 341 kts | 178° |
| 2026-04-18 10:24 | 48.91965 | 8.59299 | 11540 ft | 338 kts | 178° |
| 2026-04-18 10:24 | 48.89627 | 8.59574 | 11071 ft | 336 kts | 178° |
| 2026-04-18 10:24 | 48.87307 | 8.59846 | 10603 ft | 333 kts | 178° |
| 2026-04-18 10:24 | 48.85035 | 8.60149 | 10436 ft | 322 kts | 174° |
| 2026-04-18 10:25 | 48.82921 | 8.61092 | 10312 ft | 313 kts | 157° |
| 2026-04-18 10:25 | 48.81100 | 8.62799 | 10167 ft | 305 kts | 142° |
| 2026-04-18 10:25 | 48.79656 | 8.65108 | 9993 ft | 297 kts | 129° |
| 2026-04-18 10:25 | 48.78409 | 8.67537 | 9862 ft | 287 kts | 129° |
| 2026-04-18 10:26 | 48.77198 | 8.69869 | 9728 ft | 276 kts | 129° |
| 2026-04-18 10:26 | 48.76027 | 8.72110 | 9592 ft | 267 kts | 130° |
| 2026-04-18 10:26 | 48.74889 | 8.74282 | 9402 ft | 260 kts | 129° |
| 2026-04-18 10:26 | 48.73774 | 8.76408 | 9136 ft | 256 kts | 129° |
| 2026-04-18 10:27 | 48.72671 | 8.78514 | 8812 ft | 255 kts | 129° |
| 2026-04-18 10:27 | 48.71574 | 8.80611 | 8491 ft | 254 kts | 129° |
| 2026-04-18 10:27 | 48.70449 | 8.82758 | 7850 ft | 266 kts | 129° |
| 2026-04-18 10:27 | 48.69307 | 8.84936 | 7546 ft | 260 kts | 129° |
| 2026-04-18 10:28 | 48.68189 | 8.87069 | 6991 ft | 260 kts | 129° |
| 2026-04-18 10:28 | 48.67075 | 8.89196 | 6550 ft | 256 kts | 129° |
| 2026-04-18 10:28 | 48.65977 | 8.91293 | 6028 ft | 253 kts | 129° |
| 2026-04-18 10:28 | 48.64905 | 8.93385 | 5528 ft | 251 kts | 124° |
| 2026-04-18 10:29 | 48.64295 | 8.95833 | 5011 ft | 249 kts | 97° |
| 2026-04-18 10:29 | 48.64450 | 8.98411 | 4498 ft | 247 kts | 73° |
| 2026-04-18 10:29 | 48.64938 | 9.00901 | 3955 ft | 248 kts | 74° |
| 2026-04-18 10:29 | 48.65400 | 9.03385 | 3557 ft | 241 kts | 74° |
| 2026-04-18 10:30 | 48.65855 | 9.05783 | 3240 ft | 233 kts | 73° |
| 2026-04-18 10:30 | 48.66293 | 9.08070 | 2940 ft | 219 kts | 74° |
| 2026-04-18 10:30 | 48.66696 | 9.10175 | 2655 ft | 198 kts | 74° |
| 2026-04-18 10:30 | 48.67052 | 9.12033 | 2423 ft | 174 kts | 74° |
| 2026-04-18 10:31 | 48.67367 | 9.13684 | 2203 ft | 153 kts | 74° |
| 2026-04-18 10:31 | 48.67649 | 9.15162 | 2012 ft | 141 kts | 73° |
| 2026-04-18 10:31 | 48.67916 | 9.16562 | 1827 ft | 137 kts | 73° |
| 2026-04-18 10:31 | 48.68178 | 9.17939 | 1652 ft | 135 kts | 73° |
| 2026-04-18 10:32 | 48.68437 | 9.19294 | 1476 ft | 134 kts | 73° |
| 2026-04-18 10:32 | 48.68687 | 9.20632 | 1293 ft | 129 kts | 73° |
| 2026-04-18 10:32 | 48.68899 | 9.21712 | 1262 ft | 87 kts | 73° |
| 2026-04-18 10:32 | 48.69005 | 9.22277 | 1233 ft | 41 kts | 74° |
| 2026-04-18 10:33 | 48.69068 | 9.22612 | 1225 ft | 46 kts | 74° |
| 2026-04-18 10:33 | 48.69168 | 9.22945 | 1218 ft | 33 kts | 54° |
| 2026-04-18 10:33 | 48.69251 | 9.23078 | 1216 ft | 22 kts | 42° |
| 2026-04-18 10:33 | 48.69366 | 9.23148 | 1220 ft | 17 kts | 336° |
| 2026-04-18 10:34 | 48.69400 | 9.23007 | 1225 ft | 14 kts | 255° |
| 2026-04-18 10:34 | 48.69374 | 9.22873 | 1228 ft | 13 kts | 255° |
| 2026-04-18 10:34 | 48.69352 | 9.22740 | 1231 ft | 13 kts | 255° |
| 2026-04-18 10:34 | 48.69326 | 9.22599 | 1241 ft | 14 kts | 253° |
| 2026-04-18 10:35 | 48.69297 | 9.22451 | 1237 ft | 15 kts | 254° |
| 2026-04-18 10:35 | 48.69268 | 9.22295 | 1241 ft | 16 kts | 254° |
| 2026-04-18 10:35 | 48.69237 | 9.22134 | 1253 ft | 16 kts | 253° |
| 2026-04-18 10:35 | 48.69206 | 9.21968 | 1260 ft | 17 kts | 254° |
| 2026-04-18 10:36 | 48.69172 | 9.21791 | 1259 ft | 19 kts | 254° |
| 2026-04-18 10:36 | 48.69134 | 9.21591 | 1266 ft | 21 kts | 254° |
| 2026-04-18 10:36 | 48.69092 | 9.21369 | 1262 ft | 23 kts | 253° |
| 2026-04-18 10:36 | 48.69045 | 9.21126 | 1271 ft | 25 kts | 253° |
| 2026-04-18 10:37 | 48.68995 | 9.20860 | 1274 ft | 27 kts | 254° |
| 2026-04-18 10:37 | 48.68942 | 9.20574 | 1281 ft | 29 kts | 254° |
| 2026-04-18 10:37 | 48.68883 | 9.20273 | 1289 ft | 30 kts | 254° |
| 2026-04-18 10:37 | 48.68831 | 9.20012 | 1295 ft | 19 kts | 242° |
| 2026-04-18 10:38 | 48.68859 | 9.19885 | 1300 ft | 14 kts | 341° |
| 2026-04-18 10:38 | 48.68883 | 9.19779 | 1306 ft | 13 kts | 255° |
| 2026-04-18 10:38 | 48.68858 | 9.19648 | 1309 ft | 11 kts | 253° |
| 2026-04-18 10:38 | 48.68892 | 9.19594 | 1312 ft | 7 kts | 345° |
| 2026-04-18 10:39 | 48.68925 | 9.19581 | 1315 ft | 3 kts | 346° |
| 2026-04-18 10:39 | 48.68929 | 9.19580 | 1315 ft | 0 kts | 345° |